Details for AirAsia Thailand at VTSS




Go Back


Latest METAR
Local Time

VTSS 181330Z 00000KT 9999 FEW020 SCT100 28/25 Q1006 NOSIG
18/07/2018, 20:59:45

Description
Results
AirAsia Thailand Logo
Number of Pilots based at VTSS
0 Pilots Based here
Number of AirAsia Thailand Flights Departed from VTSS
0 Flights Departed
Number of AirAsia Thailand Flights Arrived at VTSS
0 Flights Arrived
Number of AirAsia Thailand Schedules Departing from VTSS
18 Schedules
Number of AirAsia Thailand Schedules Arriving at VTSS
17 Schedules
Number of AirAsia Thailand Schedules Departing from VTSS availible today
16 Schedules Today
Number of AirAsia Thailand Schedules Arriving at VTSS availible today
16 Schedules Today
Average Landing Rate at VTSS
0 fpm
AirAsia Thailand Average Landing Rate at VTSS
0 fpm
Total Fuel Purchased at VTSS by AirAsia Thailand
0.00 kgs / 0.00 lbs

Pilots Based at VTSS


Pilot ID
Pilot Name
Pilot Rank
No. of Flights
No. of Flying Hours
There are no pilots assigned to this hub!   Will you be the first?
Content